sensor_id;sensor_type;location;lat;lon;timestamp;P1;P2;P0
56360;PMS7003;42611;51.132;13.588;2023-04-26T00:03:02;5.5;5.0;
56360;PMS7003;42611;51.132;13.588;2023-04-26T00:08:01;5.6;5.1;
56360;PMS7003;42611;51.132;13.588;2023-04-26T00:13:01;6.4;5.6;
56360;PMS7003;42611;51.132;13.588;2023-04-26T00:18:02;6.5;5.5;
56360;PMS7003;42611;51.132;13.588;2023-04-26T00:23:01;6.6;5.4;
56360;PMS7003;42611;51.132;13.588;2023-04-26T00:28:01;6.3;4.8;
56360;PMS7003;42611;51.132;13.588;2023-04-26T00:33:02;6.2;4.8;
56360;PMS7003;42611;51.132;13.588;2023-04-26T00:38:01;5.3;4.3;
56360;PMS7003;42611;51.132;13.588;2023-04-26T00:43:01;5.5;4.3;
56360;PMS7003;42611;51.132;13.588;2023-04-26T00:48:01;4.7;3.9;
56360;PMS7003;42611;51.132;13.588;2023-04-26T00:53:01;4.5;4.1;
56360;PMS7003;42611;51.132;13.588;2023-04-26T01:03:03;4.8;4.2;
56360;PMS7003;42611;51.132;13.588;2023-04-26T01:13:01;5.3;4.7;
56360;PMS7003;42611;51.132;13.588;2023-04-26T01:18:01;5.2;4.7;
56360;PMS7003;42611;51.132;13.588;2023-04-26T01:23:09;5.5;4.9;
56360;PMS7003;42611;51.132;13.588;2023-04-26T01:28:01;5.3;4.9;
56360;PMS7003;42611;51.132;13.588;2023-04-26T01:33:01;5.2;5.0;
56360;PMS7003;42611;51.132;13.588;2023-04-26T01:38:01;5.4;5.0;
56360;PMS7003;42611;51.132;13.588;2023-04-26T01:48:02;5.6;4.9;
56360;PMS7003;42611;51.132;13.588;2023-04-26T01:53:01;6.0;5.3;
56360;PMS7003;42611;51.132;13.588;2023-04-26T01:58:01;6.6;5.8;
56360;PMS7003;42611;51.132;13.588;2023-04-26T02:13:02;6.6;6.1;
56360;PMS7003;42611;51.132;13.588;2023-04-26T02:23:01;5.8;5.0;
56360;PMS7003;42611;51.132;13.588;2023-04-26T02:28:01;5.5;4.6;
56360;PMS7003;42611;51.132;13.588;2023-04-26T02:33:01;5.6;4.7;
56360;PMS7003;42611;51.132;13.588;2023-04-26T02:38:01;5.8;5.1;
56360;PMS7003;42611;51.132;13.588;2023-04-26T02:43:01;5.3;5.0;
56360;PMS7003;42611;51.132;13.588;2023-04-26T02:48:01;5.6;5.2;
56360;PMS7003;42611;51.132;13.588;2023-04-26T02:53:01;6.6;5.6;
56360;PMS7003;42611;51.132;13.588;2023-04-26T02:58:01;6.2;5.4;
56360;PMS7003;42611;51.132;13.588;2023-04-26T03:08:01;6.1;5.0;
56360;PMS7003;42611;51.132;13.588;2023-04-26T03:13:03;6.7;5.3;
56360;PMS7003;42611;51.132;13.588;2023-04-26T03:18:02;5.7;5.0;
56360;PMS7003;42611;51.132;13.588;2023-04-26T03:23:01;6.3;5.3;
56360;PMS7003;42611;51.132;13.588;2023-04-26T03:33:02;6.5;5.5;
56360;PMS7003;42611;51.132;13.588;2023-04-26T03:43:02;7.3;5.4;
56360;PMS7003;42611;51.132;13.588;2023-04-26T03:48:02;7.0;5.4;
56360;PMS7003;42611;51.132;13.588;2023-04-26T03:53:01;6.4;5.1;
56360;PMS7003;42611;51.132;13.588;2023-04-26T03:58:07;6.8;5.4;
56360;PMS7003;42611;51.132;13.588;2023-04-26T04:03:02;6.4;5.4;
56360;PMS7003;42611;51.132;13.588;2023-04-26T04:08:02;6.1;5.2;
56360;PMS7003;42611;51.132;13.588;2023-04-26T04:13:01;5.9;5.0;
56360;PMS7003;42611;51.132;13.588;2023-04-26T04:18:02;6.3;5.2;
56360;PMS7003;42611;51.132;13.588;2023-04-26T04:23:01;7.3;5.7;
56360;PMS7003;42611;51.132;13.588;2023-04-26T04:28:01;7.2;5.5;
56360;PMS7003;42611;51.132;13.588;2023-04-26T04:33:01;10.4;8.3;
56360;PMS7003;42611;51.132;13.588;2023-04-26T04:38:01;17.0;13.2;
56360;PMS7003;42611;51.132;13.588;2023-04-26T04:43:01;26.2;19.9;
56360;PMS7003;42611;51.132;13.588;2023-04-26T04:48:01;31.1;23.3;
56360;PMS7003;42611;51.132;13.588;2023-04-26T04:53:01;35.5;27.1;
56360;PMS7003;42611;51.132;13.588;2023-04-26T04:58:02;33.1;25.2;
56360;PMS7003;42611;51.132;13.588;2023-04-26T05:03:02;26.4;20.2;
56360;PMS7003;42611;51.132;13.588;2023-04-26T05:08:01;17.8;14.0;
56360;PMS7003;42611;51.132;13.588;2023-04-26T05:13:02;11.9;10.1;
56360;PMS7003;42611;51.132;13.588;2023-04-26T05:18:01;7.8;7.0;
56360;PMS7003;42611;51.132;13.588;2023-04-26T05:23:01;6.8;6.5;
56360;PMS7003;42611;51.132;13.588;2023-04-26T05:28:01;6.9;6.3;
56360;PMS7003;42611;51.132;13.588;2023-04-26T05:34:01;6.2;5.5;
56360;PMS7003;42611;51.132;13.588;2023-04-26T05:39:01;6.0;5.3;
56360;PMS7003;42611;51.132;13.588;2023-04-26T05:44:01;5.7;5.0;
56360;PMS7003;42611;51.132;13.588;2023-04-26T05:54:02;6.0;5.0;
56360;PMS7003;42611;51.132;13.588;2023-04-26T05:59:01;5.7;5.1;
56360;PMS7003;42611;51.132;13.588;2023-04-26T06:04:03;5.3;4.6;
56360;PMS7003;42611;51.132;13.588;2023-04-26T06:09:02;5.0;4.3;
56360;PMS7003;42611;51.132;13.588;2023-04-26T06:14:02;5.1;4.4;
56360;PMS7003;42611;51.132;13.588;2023-04-26T06:19:01;4.9;4.4;
56360;PMS7003;42611;51.132;13.588;2023-04-26T06:24:01;8.0;6.3;
56360;PMS7003;42611;51.132;13.588;2023-04-26T06:29:01;8.9;7.3;
56360;PMS7003;42611;51.132;13.588;2023-04-26T06:34:01;9.0;7.1;
56360;PMS7003;42611;51.132;13.588;2023-04-26T06:39:01;9.2;6.9;
56360;PMS7003;42611;51.132;13.588;2023-04-26T06:44:01;9.0;6.9;
56360;PMS7003;42611;51.132;13.588;2023-04-26T06:49:01;6.7;5.6;
56360;PMS7003;42611;51.132;13.588;2023-04-26T06:54:03;6.4;5.2;
56360;PMS7003;42611;51.132;13.588;2023-04-26T07:00:02;6.6;5.8;
56360;PMS7003;42611;51.132;13.588;2023-04-26T07:05:02;6.4;6.3;
56360;PMS7003;42611;51.132;13.588;2023-04-26T07:10:02;7.9;6.5;
56360;PMS7003;42611;51.132;13.588;2023-04-26T07:15:03;7.8;6.1;
56360;PMS7003;42611;51.132;13.588;2023-04-26T07:20:01;7.5;5.8;
56360;PMS7003;42611;51.132;13.588;2023-04-26T07:25:02;7.0;5.2;
56360;PMS7003;42611;51.132;13.588;2023-04-26T07:30:03;6.7;4.6;
56360;PMS7003;42611;51.132;13.588;2023-04-26T07:35:05;5.3;4.3;
56360;PMS7003;42611;51.132;13.588;2023-04-26T07:40:01;4.6;3.7;
56360;PMS7003;42611;51.132;13.588;2023-04-26T07:45:02;4.7;3.4;
56360;PMS7003;42611;51.132;13.588;2023-04-26T07:50:04;4.8;3.2;
56360;PMS7003;42611;51.132;13.588;2023-04-26T07:55:01;4.2;2.9;
56360;PMS7003;42611;51.132;13.588;2023-04-26T08:00:04;10.8;8.6;
56360;PMS7003;42611;51.132;13.588;2023-04-26T08:05:02;25.5;20.9;
56360;PMS7003;42611;51.132;13.588;2023-04-26T08:15:03;27.1;22.8;
56360;PMS7003;42611;51.132;13.588;2023-04-26T08:20:02;29.3;24.6;
56360;PMS7003;42611;51.132;13.588;2023-04-26T08:25:02;22.9;19.0;
56360;PMS7003;42611;51.132;13.588;2023-04-26T08:30:03;9.2;7.7;
56360;PMS7003;42611;51.132;13.588;2023-04-26T08:35:01;8.4;7.1;
56360;PMS7003;42611;51.132;13.588;2023-04-26T08:40:01;8.8;7.4;
56360;PMS7003;42611;51.132;13.588;2023-04-26T08:45:02;7.0;6.0;
56360;PMS7003;42611;51.132;13.588;2023-04-26T08:50:03;6.6;5.8;
56360;PMS7003;42611;51.132;13.588;2023-04-26T08:55:01;5.6;5.0;
56360;PMS7003;42611;51.132;13.588;2023-04-26T09:00:03;5.9;5.3;
56360;PMS7003;42611;51.132;13.588;2023-04-26T09:05:02;3.6;3.6;
56360;PMS7003;42611;51.132;13.588;2023-04-26T09:10:01;3.3;3.2;
56360;PMS7003;42611;51.132;13.588;2023-04-26T09:15:04;3.7;3.4;
56360;PMS7003;42611;51.132;13.588;2023-04-26T09:25:03;4.7;4.5;
56360;PMS7003;42611;51.132;13.588;2023-04-26T09:30:13;5.4;5.2;
56360;PMS7003;42611;51.132;13.588;2023-04-26T09:35:01;5.3;5.1;
56360;PMS7003;42611;51.132;13.588;2023-04-26T09:40:02;5.2;4.9;
56360;PMS7003;42611;51.132;13.588;2023-04-26T09:45:05;5.4;5.1;
56360;PMS7003;42611;51.132;13.588;2023-04-26T09:50:01;4.2;3.7;
56360;PMS7003;42611;51.132;13.588;2023-04-26T09:56:09;3.5;3.1;
56360;PMS7003;42611;51.132;13.588;2023-04-26T10:01:01;4.0;3.4;
56360;PMS7003;42611;51.132;13.588;2023-04-26T10:06:02;3.7;3.3;
56360;PMS7003;42611;51.132;13.588;2023-04-26T10:11:02;4.5;4.0;
56360;PMS7003;42611;51.132;13.588;2023-04-26T10:16:02;6.4;5.6;
56360;PMS7003;42611;51.132;13.588;2023-04-26T10:21:10;7.2;6.4;
56360;PMS7003;42611;51.132;13.588;2023-04-26T10:31:01;8.7;7.7;
56360;PMS7003;42611;51.132;13.588;2023-04-26T10:36:06;8.4;7.0;
56360;PMS7003;42611;51.132;13.588;2023-04-26T10:41:34;6.7;5.4;
56360;PMS7003;42611;51.132;13.588;2023-04-26T10:46:31;6.2;4.7;
56360;PMS7003;42611;51.132;13.588;2023-04-26T10:51:06;6.6;5.5;
56360;PMS7003;42611;51.132;13.588;2023-04-26T10:56:01;5.3;4.2;
56360;PMS7003;42611;51.132;13.588;2023-04-26T11:06:07;6.1;5.8;
56360;PMS7003;42611;51.132;13.588;2023-04-26T11:11:05;10.0;8.7;
56360;PMS7003;42611;51.132;13.588;2023-04-26T11:16:02;9.6;8.4;
56360;PMS7003;42611;51.132;13.588;2023-04-26T11:21:01;11.1;9.5;
56360;PMS7003;42611;51.132;13.588;2023-04-26T11:26:04;11.3;9.3;
56360;PMS7003;42611;51.132;13.588;2023-04-26T11:31:02;10.4;8.3;
56360;PMS7003;42611;51.132;13.588;2023-04-26T11:36:02;6.6;5.7;
56360;PMS7003;42611;51.132;13.588;2023-04-26T11:41:02;7.2;6.1;
56360;PMS7003;42611;51.132;13.588;2023-04-26T11:46:02;5.8;4.8;
56360;PMS7003;42611;51.132;13.588;2023-04-26T11:51:03;5.7;5.0;
56360;PMS7003;42611;51.132;13.588;2023-04-26T11:56:01;6.4;5.8;
56360;PMS7003;42611;51.132;13.588;2023-04-26T12:01:01;6.6;6.1;
56360;PMS7003;42611;51.132;13.588;2023-04-26T12:06:07;6.2;5.9;
56360;PMS7003;42611;51.132;13.588;2023-04-26T12:11:02;6.7;6.7;
56360;PMS7003;42611;51.132;13.588;2023-04-26T12:16:22;7.1;7.0;
56360;PMS7003;42611;51.132;13.588;2023-04-26T12:26:04;7.4;7.3;
56360;PMS7003;42611;51.132;13.588;2023-04-26T12:31:03;7.5;7.4;
56360;PMS7003;42611;51.132;13.588;2023-04-26T12:36:05;7.8;7.3;
56360;PMS7003;42611;51.132;13.588;2023-04-26T12:41:01;7.4;6.9;
56360;PMS7003;42611;51.132;13.588;2023-04-26T12:46:02;7.6;6.9;
56360;PMS7003;42611;51.132;13.588;2023-04-26T12:56:01;7.7;6.5;
56360;PMS7003;42611;51.132;13.588;2023-04-26T13:01:01;7.1;6.4;
56360;PMS7003;42611;51.132;13.588;2023-04-26T13:06:01;7.4;6.6;
56360;PMS7003;42611;51.132;13.588;2023-04-26T13:11:01;6.8;6.2;
56360;PMS7003;42611;51.132;13.588;2023-04-26T13:16:02;7.2;6.6;
56360;PMS7003;42611;51.132;13.588;2023-04-26T13:21:01;7.4;6.7;
56360;PMS7003;42611;51.132;13.588;2023-04-26T13:26:01;8.0;7.1;
56360;PMS7003;42611;51.132;13.588;2023-04-26T13:31:01;7.6;6.7;
56360;PMS7003;42611;51.132;13.588;2023-04-26T13:36:01;8.5;7.5;
56360;PMS7003;42611;51.132;13.588;2023-04-26T13:41:01;8.0;7.5;
56360;PMS7003;42611;51.132;13.588;2023-04-26T13:51:01;7.9;7.2;
56360;PMS7003;42611;51.132;13.588;2023-04-26T13:56:01;8.0;7.2;
56360;PMS7003;42611;51.132;13.588;2023-04-26T14:06:01;8.2;6.6;
56360;PMS7003;42611;51.132;13.588;2023-04-26T14:11:01;8.5;6.6;
56360;PMS7003;42611;51.132;13.588;2023-04-26T14:16:01;7.9;6.0;
56360;PMS7003;42611;51.132;13.588;2023-04-26T14:21:01;8.1;6.1;
56360;PMS7003;42611;51.132;13.588;2023-04-26T14:26:01;7.4;6.2;
56360;PMS7003;42611;51.132;13.588;2023-04-26T14:31:01;6.8;5.8;
56360;PMS7003;42611;51.132;13.588;2023-04-26T14:36:01;6.0;5.6;
56360;PMS7003;42611;51.132;13.588;2023-04-26T14:46:01;5.7;5.6;
56360;PMS7003;42611;51.132;13.588;2023-04-26T14:51:01;5.9;5.8;
56360;PMS7003;42611;51.132;13.588;2023-04-26T14:56:01;6.0;5.8;
56360;PMS7003;42611;51.132;13.588;2023-04-26T15:01:01;6.1;5.8;
56360;PMS7003;42611;51.132;13.588;2023-04-26T15:06:01;6.3;5.6;
56360;PMS7003;42611;51.132;13.588;2023-04-26T15:11:02;6.6;6.0;
56360;PMS7003;42611;51.132;13.588;2023-04-26T15:16:02;6.4;5.8;
56360;PMS7003;42611;51.132;13.588;2023-04-26T15:21:01;6.3;5.7;
56360;PMS7003;42611;51.132;13.588;2023-04-26T15:26:01;5.7;5.3;
56360;PMS7003;42611;51.132;13.588;2023-04-26T15:31:03;5.4;5.4;
56360;PMS7003;42611;51.132;13.588;2023-04-26T15:36:02;5.3;5.3;
56360;PMS7003;42611;51.132;13.588;2023-04-26T15:41:01;6.2;5.5;
56360;PMS7003;42611;51.132;13.588;2023-04-26T15:46:01;6.5;5.9;
56360;PMS7003;42611;51.132;13.588;2023-04-26T15:51:03;7.1;6.5;
56360;PMS7003;42611;51.132;13.588;2023-04-26T15:56:01;7.0;6.4;
56360;PMS7003;42611;51.132;13.588;2023-04-26T16:01:02;7.1;6.2;
56360;PMS7003;42611;51.132;13.588;2023-04-26T16:06:02;6.5;6.1;
56360;PMS7003;42611;51.132;13.588;2023-04-26T16:11:01;6.6;5.9;
56360;PMS7003;42611;51.132;13.588;2023-04-26T16:16:04;6.3;5.7;
56360;PMS7003;42611;51.132;13.588;2023-04-26T16:21:03;6.7;6.1;
56360;PMS7003;42611;51.132;13.588;2023-04-26T16:26:01;7.3;6.6;
56360;PMS7003;42611;51.132;13.588;2023-04-26T16:31:01;7.1;6.6;
56360;PMS7003;42611;51.132;13.588;2023-04-26T16:36:01;6.9;6.6;
56360;PMS7003;42611;51.132;13.588;2023-04-26T16:41:01;6.8;6.6;
56360;PMS7003;42611;51.132;13.588;2023-04-26T16:46:03;6.4;6.0;
56360;PMS7003;42611;51.132;13.588;2023-04-26T16:51:02;5.3;5.2;
56360;PMS7003;42611;51.132;13.588;2023-04-26T16:56:01;6.0;5.4;
56360;PMS7003;42611;51.132;13.588;2023-04-26T17:05:04;11.4;8.0;
56360;PMS7003;42611;51.132;13.588;2023-04-26T17:10:03;8.7;7.0;
56360;PMS7003;42611;51.132;13.588;2023-04-26T17:15:05;6.9;5.7;
56360;PMS7003;42611;51.132;13.588;2023-04-26T17:20:01;6.7;5.3;
56360;PMS7003;42611;51.132;13.588;2023-04-26T17:25:01;6.9;5.7;
56360;PMS7003;42611;51.132;13.588;2023-04-26T17:30:02;5.7;5.0;
56360;PMS7003;42611;51.132;13.588;2023-04-26T17:35:01;5.9;4.9;
56360;PMS7003;42611;51.132;13.588;2023-04-26T17:40:02;6.4;5.4;
56360;PMS7003;42611;51.132;13.588;2023-04-26T17:45:02;6.4;5.8;
56360;PMS7003;42611;51.132;13.588;2023-04-26T17:50:01;6.0;5.5;
56360;PMS7003;42611;51.132;13.588;2023-04-26T17:56:01;6.4;6.1;
56360;PMS7003;42611;51.132;13.588;2023-04-26T18:01:01;6.8;6.3;
56360;PMS7003;42611;51.132;13.588;2023-04-26T18:06:01;7.1;6.5;
56360;PMS7003;42611;51.132;13.588;2023-04-26T18:11:01;7.3;6.7;
56360;PMS7003;42611;51.132;13.588;2023-04-26T18:16:01;6.9;6.4;
56360;PMS7003;42611;51.132;13.588;2023-04-26T18:21:01;6.3;5.6;
56360;PMS7003;42611;51.132;13.588;2023-04-26T18:26:01;5.8;5.6;
56360;PMS7003;42611;51.132;13.588;2023-04-26T18:31:01;6.1;5.8;
56360;PMS7003;42611;51.132;13.588;2023-04-26T18:36:01;6.0;5.4;
56360;PMS7003;42611;51.132;13.588;2023-04-26T18:41:02;6.5;5.9;
56360;PMS7003;42611;51.132;13.588;2023-04-26T18:46:02;6.7;6.3;
56360;PMS7003;42611;51.132;13.588;2023-04-26T18:51:01;6.6;6.1;
56360;PMS7003;42611;51.132;13.588;2023-04-26T18:56:01;6.2;5.8;
56360;PMS7003;42611;51.132;13.588;2023-04-26T19:01:01;6.4;6.2;
56360;PMS7003;42611;51.132;13.588;2023-04-26T19:06:06;6.2;5.8;
56360;PMS7003;42611;51.132;13.588;2023-04-26T19:11:01;6.1;5.6;
56360;PMS7003;42611;51.132;13.588;2023-04-26T19:16:01;6.2;5.8;
56360;PMS7003;42611;51.132;13.588;2023-04-26T19:21:03;5.7;5.4;
56360;PMS7003;42611;51.132;13.588;2023-04-26T19:31:02;5.4;5.1;
56360;PMS7003;42611;51.132;13.588;2023-04-26T19:36:01;6.0;5.3;
56360;PMS7003;42611;51.132;13.588;2023-04-26T19:41:01;7.1;5.7;
56360;PMS7003;42611;51.132;13.588;2023-04-26T19:46:11;7.9;6.4;
56360;PMS7003;42611;51.132;13.588;2023-04-26T19:51:01;7.7;6.3;
56360;PMS7003;42611;51.132;13.588;2023-04-26T19:56:01;8.5;7.2;
56360;PMS7003;42611;51.132;13.588;2023-04-26T20:01:02;9.1;8.0;
56360;PMS7003;42611;51.132;13.588;2023-04-26T20:06:02;9.6;8.6;
56360;PMS7003;42611;51.132;13.588;2023-04-26T20:11:02;10.3;9.2;
56360;PMS7003;42611;51.132;13.588;2023-04-26T20:16:01;11.0;9.7;
56360;PMS7003;42611;51.132;13.588;2023-04-26T20:21:01;10.5;9.2;
56360;PMS7003;42611;51.132;13.588;2023-04-26T20:26:01;10.4;9.3;
56360;PMS7003;42611;51.132;13.588;2023-04-26T20:31:01;10.0;9.5;
56360;PMS7003;42611;51.132;13.588;2023-04-26T20:36:01;9.8;9.4;
56360;PMS7003;42611;51.132;13.588;2023-04-26T20:41:01;10.2;9.5;
56360;PMS7003;42611;51.132;13.588;2023-04-26T20:46:01;10.8;10.0;
56360;PMS7003;42611;51.132;13.588;2023-04-26T20:51:01;9.8;9.0;
56360;PMS7003;42611;51.132;13.588;2023-04-26T20:56:01;8.7;8.0;
56360;PMS7003;42611;51.132;13.588;2023-04-26T21:01:02;8.4;7.8;
56360;PMS7003;42611;51.132;13.588;2023-04-26T21:06:01;7.6;7.6;
56360;PMS7003;42611;51.132;13.588;2023-04-26T21:11:01;7.7;7.5;
56360;PMS7003;42611;51.132;13.588;2023-04-26T21:16:02;8.8;8.4;
56360;PMS7003;42611;51.132;13.588;2023-04-26T21:21:01;9.3;8.9;
56360;PMS7003;42611;51.132;13.588;2023-04-26T21:26:01;9.1;8.7;
56360;PMS7003;42611;51.132;13.588;2023-04-26T21:31:04;8.9;8.5;
56360;PMS7003;42611;51.132;13.588;2023-04-26T21:36:02;8.4;8.0;
56360;PMS7003;42611;51.132;13.588;2023-04-26T21:41:01;8.9;8.2;
56360;PMS7003;42611;51.132;13.588;2023-04-26T21:46:01;8.8;8.1;
56360;PMS7003;42611;51.132;13.588;2023-04-26T21:51:02;9.8;8.7;
56360;PMS7003;42611;51.132;13.588;2023-04-26T21:56:01;10.7;9.6;
56360;PMS7003;42611;51.132;13.588;2023-04-26T22:01:11;11.0;10.1;
56360;PMS7003;42611;51.132;13.588;2023-04-26T22:06:01;10.0;9.5;
56360;PMS7003;42611;51.132;13.588;2023-04-26T22:11:01;10.8;10.2;
56360;PMS7003;42611;51.132;13.588;2023-04-26T22:16:01;10.3;9.6;
56360;PMS7003;42611;51.132;13.588;2023-04-26T22:21:02;11.0;9.9;
56360;PMS7003;42611;51.132;13.588;2023-04-26T22:26:01;12.7;11.6;
56360;PMS7003;42611;51.132;13.588;2023-04-26T22:31:01;13.2;12.1;
56360;PMS7003;42611;51.132;13.588;2023-04-26T22:36:01;13.5;12.4;
56360;PMS7003;42611;51.132;13.588;2023-04-26T22:41:01;13.0;12.4;
56360;PMS7003;42611;51.132;13.588;2023-04-26T22:46:02;11.8;11.6;
56360;PMS7003;42611;51.132;13.588;2023-04-26T22:51:01;10.6;10.4;
56360;PMS7003;42611;51.132;13.588;2023-04-26T22:56:01;11.1;10.5;
56360;PMS7003;42611;51.132;13.588;2023-04-26T23:01:01;9.8;9.1;
56360;PMS7003;42611;51.132;13.588;2023-04-26T23:06:03;11.2;10.2;
56360;PMS7003;42611;51.132;13.588;2023-04-26T23:11:05;12.6;11.2;
56360;PMS7003;42611;51.132;13.588;2023-04-26T23:16:01;13.3;11.6;
56360;PMS7003;42611;51.132;13.588;2023-04-26T23:21:01;13.6;11.7;
56360;PMS7003;42611;51.132;13.588;2023-04-26T23:26:03;15.5;13.3;
56360;PMS7003;42611;51.132;13.588;2023-04-26T23:31:01;16.0;13.6;
56360;PMS7003;42611;51.132;13.588;2023-04-26T23:36:01;15.6;13.4;
56360;PMS7003;42611;51.132;13.588;2023-04-26T23:41:01;15.5;13.7;
56360;PMS7003;42611;51.132;13.588;2023-04-26T23:46:01;15.0;13.9;
56360;PMS7003;42611;51.132;13.588;2023-04-26T23:51:01;14.6;13.8;
56360;PMS7003;42611;51.132;13.588;2023-04-26T23:56:01;13.4;12.6;
